sensor_id;sensor_type;location;lat;lon;timestamp;pressure;altitude;pressure_sealevel;temperature;humidity
26487;BME280;14425;56.136;40.360;2023-06-19T00:00:46;99810.97;;;10.04;77.45
26487;BME280;14425;56.136;40.360;2023-06-19T00:03:20;99823.97;;;9.86;79.30
26487;BME280;14425;56.136;40.360;2023-06-19T00:06:05;99814.78;;;10.13;78.95
26487;BME280;14425;56.136;40.360;2023-06-19T00:08:39;99822.47;;;9.91;78.08
26487;BME280;14425;56.136;40.360;2023-06-19T00:11:21;99826.63;;;9.87;78.64
26487;BME280;14425;56.136;40.360;2023-06-19T00:13:47;99826.09;;;9.96;78.42
26487;BME280;14425;56.136;40.360;2023-06-19T00:16:15;99823.25;;;9.88;79.21
26487;BME280;14425;56.136;40.360;2023-06-19T00:18:46;99819.81;;;9.89;79.42
26487;BME280;14425;56.136;40.360;2023-06-19T00:21:12;99821.16;;;10.01;80.51
26487;BME280;14425;56.136;40.360;2023-06-19T00:24:12;99825.38;;;9.98;78.55
26487;BME280;14425;56.136;40.360;2023-06-19T00:26:38;99820.59;;;10.08;78.81
26487;BME280;14425;56.136;40.360;2023-06-19T00:29:06;99824.72;;;10.04;78.65
26487;BME280;14425;56.136;40.360;2023-06-19T00:31:32;99824.25;;;9.92;80.57
26487;BME280;14425;56.136;40.360;2023-06-19T00:33:58;99830.56;;;9.79;80.19
26487;BME280;14425;56.136;40.360;2023-06-19T00:36:23;99827.38;;;9.64;81.13
26487;BME280;14425;56.136;40.360;2023-06-19T00:38:57;99825.63;;;9.84;80.44
26487;BME280;14425;56.136;40.360;2023-06-19T00:41:30;99826.94;;;9.95;80.59
26487;BME280;14425;56.136;40.360;2023-06-19T00:43:57;99831.88;;;9.69;80.19
26487;BME280;14425;56.136;40.360;2023-06-19T00:46:22;99819.75;;;10.09;79.10
26487;BME280;14425;56.136;40.360;2023-06-19T00:48:58;99827.63;;;9.70;79.23
26487;BME280;14425;56.136;40.360;2023-06-19T00:51:23;99823.09;;;9.64;80.57
26487;BME280;14425;56.136;40.360;2023-06-19T00:53:52;99825.72;;;9.66;80.14
26487;BME280;14425;56.136;40.360;2023-06-19T00:56:51;99825.44;;;9.79;79.03
26487;BME280;14425;56.136;40.360;2023-06-19T00:59:23;99833.81;;;9.94;78.11
26487;BME280;14425;56.136;40.360;2023-06-19T01:01:59;99828.44;;;10.11;77.67
26487;BME280;14425;56.136;40.360;2023-06-19T01:04:24;99828.69;;;10.17;76.16
26487;BME280;14425;56.136;40.360;2023-06-19T01:06:54;99841.19;;;10.50;75.14
26487;BME280;14425;56.136;40.360;2023-06-19T01:09:32;99834.34;;;10.29;75.24
26487;BME280;14425;56.136;40.360;2023-06-19T01:12:06;99834.22;;;10.26;75.19
26487;BME280;14425;56.136;40.360;2023-06-19T01:14:58;99835.66;;;9.98;76.91
26487;BME280;14425;56.136;40.360;2023-06-19T01:17:26;99844.59;;;9.86;77.57
26487;BME280;14425;56.136;40.360;2023-06-19T01:19:53;99844.22;;;9.97;77.90
26487;BME280;14425;56.136;40.360;2023-06-19T01:22:31;99838.50;;;10.05;76.86
26487;BME280;14425;56.136;40.360;2023-06-19T01:24:57;99843.16;;;9.92;78.86
26487;BME280;14425;56.136;40.360;2023-06-19T01:27:24;99841.66;;;9.76;79.15
26487;BME280;14425;56.136;40.360;2023-06-19T01:29:58;99846.66;;;9.33;83.17
26487;BME280;14425;56.136;40.360;2023-06-19T01:35:42;99844.41;;;9.60;83.94
26487;BME280;14425;56.136;40.360;2023-06-19T01:38:18;99846.91;;;9.58;82.41
26487;BME280;14425;56.136;40.360;2023-06-19T01:40:46;99844.91;;;9.32;83.59
26487;BME280;14425;56.136;40.360;2023-06-19T01:43:12;99836.91;;;9.45;84.28
26487;BME280;14425;56.136;40.360;2023-06-19T01:45:38;99855.84;;;9.47;81.85
26487;BME280;14425;56.136;40.360;2023-06-19T01:48:03;99839.03;;;9.55;82.10
26487;BME280;14425;56.136;40.360;2023-06-19T01:50:32;99848.09;;;9.88;81.23
26487;BME280;14425;56.136;40.360;2023-06-19T01:52:57;99850.34;;;10.22;76.23
26487;BME280;14425;56.136;40.360;2023-06-19T01:55:23;99852.94;;;10.43;76.33
26487;BME280;14425;56.136;40.360;2023-06-19T01:57:49;99849.56;;;10.23;76.18
26487;BME280;14425;56.136;40.360;2023-06-19T02:00:15;99846.44;;;10.53;74.78
26487;BME280;14425;56.136;40.360;2023-06-19T02:02:43;99848.56;;;10.63;73.68
26487;BME280;14425;56.136;40.360;2023-06-19T02:05:13;99855.94;;;10.77;72.11
26487;BME280;14425;56.136;40.360;2023-06-19T02:07:39;99845.81;;;10.81;72.03
26487;BME280;14425;56.136;40.360;2023-06-19T02:10:07;99852.09;;;10.43;74.05
26487;BME280;14425;56.136;40.360;2023-06-19T02:12:34;99852.75;;;10.39;74.71
26487;BME280;14425;56.136;40.360;2023-06-19T02:15:08;99846.84;;;10.20;76.16
26487;BME280;14425;56.136;40.360;2023-06-19T02:17:35;99849.75;;;10.28;75.68
26487;BME280;14425;56.136;40.360;2023-06-19T02:20:00;99841.56;;;10.38;74.42
26487;BME280;14425;56.136;40.360;2023-06-19T02:22:46;99846.69;;;10.37;75.41
26487;BME280;14425;56.136;40.360;2023-06-19T02:25:11;99853.00;;;10.03;76.70
26487;BME280;14425;56.136;40.360;2023-06-19T02:27:46;99850.31;;;9.99;77.31
26487;BME280;14425;56.136;40.360;2023-06-19T02:30:13;99846.91;;;10.22;77.87
26487;BME280;14425;56.136;40.360;2023-06-19T02:32:44;99843.63;;;10.47;73.53
26487;BME280;14425;56.136;40.360;2023-06-19T02:35:10;99845.22;;;10.66;74.46
26487;BME280;14425;56.136;40.360;2023-06-19T02:37:52;99852.44;;;10.75;74.06
26487;BME280;14425;56.136;40.360;2023-06-19T02:40:17;99837.81;;;10.98;72.34
26487;BME280;14425;56.136;40.360;2023-06-19T02:42:44;99840.50;;;11.01;71.43
26487;BME280;14425;56.136;40.360;2023-06-19T02:45:10;99845.97;;;10.86;72.54
26487;BME280;14425;56.136;40.360;2023-06-19T02:47:43;99840.19;;;11.16;70.07
26487;BME280;14425;56.136;40.360;2023-06-19T02:50:09;99839.41;;;11.18;71.17
26487;BME280;14425;56.136;40.360;2023-06-19T02:52:37;99836.41;;;10.83;71.04
26487;BME280;14425;56.136;40.360;2023-06-19T02:55:03;99834.25;;;10.94;71.69
26487;BME280;14425;56.136;40.360;2023-06-19T02:57:31;99835.66;;;11.10;70.01
26487;BME280;14425;56.136;40.360;2023-06-19T02:59:56;99840.59;;;11.04;69.71
26487;BME280;14425;56.136;40.360;2023-06-19T03:02:22;99838.63;;;10.97;71.43
26487;BME280;14425;56.136;40.360;2023-06-19T03:04:47;99840.50;;;11.25;69.49
26487;BME280;14425;56.136;40.360;2023-06-19T03:07:14;99832.75;;;11.49;67.88
26487;BME280;14425;56.136;40.360;2023-06-19T03:09:40;99827.41;;;11.70;66.58
26487;BME280;14425;56.136;40.360;2023-06-19T03:12:09;99821.34;;;11.68;66.18
26487;BME280;14425;56.136;40.360;2023-06-19T03:14:35;99827.16;;;11.88;65.79
26487;BME280;14425;56.136;40.360;2023-06-19T03:17:00;99812.94;;;11.24;67.77
26487;BME280;14425;56.136;40.360;2023-06-19T03:19:26;99822.66;;;11.31;70.02
26487;BME280;14425;56.136;40.360;2023-06-19T03:21:51;99824.50;;;11.35;68.94
26487;BME280;14425;56.136;40.360;2023-06-19T03:24:17;99823.13;;;11.45;68.38
26487;BME280;14425;56.136;40.360;2023-06-19T03:26:42;99824.63;;;11.38;67.58
26487;BME280;14425;56.136;40.360;2023-06-19T03:29:08;99818.41;;;11.33;68.08
26487;BME280;14425;56.136;40.360;2023-06-19T03:31:33;99819.34;;;11.87;66.47
26487;BME280;14425;56.136;40.360;2023-06-19T03:33:59;99808.78;;;11.79;64.74
26487;BME280;14425;56.136;40.360;2023-06-19T03:36:24;99811.94;;;11.96;66.80
26487;BME280;14425;56.136;40.360;2023-06-19T03:38:50;99815.13;;;12.14;64.97
26487;BME280;14425;56.136;40.360;2023-06-19T03:41:15;99815.13;;;12.43;64.15
26487;BME280;14425;56.136;40.360;2023-06-19T03:43:40;99811.69;;;12.43;63.92
26487;BME280;14425;56.136;40.360;2023-06-19T03:46:06;99814.50;;;12.50;64.12
26487;BME280;14425;56.136;40.360;2023-06-19T03:48:37;99815.88;;;12.68;62.85
26487;BME280;14425;56.136;40.360;2023-06-19T03:51:03;99804.66;;;12.67;64.09
26487;BME280;14425;56.136;40.360;2023-06-19T03:53:31;99802.75;;;12.90;64.04
26487;BME280;14425;56.136;40.360;2023-06-19T03:55:59;99808.00;;;12.93;62.35
26487;BME280;14425;56.136;40.360;2023-06-19T03:58:25;99810.38;;;12.86;64.52
26487;BME280;14425;56.136;40.360;2023-06-19T04:00:51;99814.16;;;12.67;65.12
26487;BME280;14425;56.136;40.360;2023-06-19T04:03:19;99810.88;;;12.74;66.21
26487;BME280;14425;56.136;40.360;2023-06-19T04:05:44;99810.41;;;12.87;64.90
26487;BME280;14425;56.136;40.360;2023-06-19T04:08:10;99816.78;;;12.99;65.03
26487;BME280;14425;56.136;40.360;2023-06-19T04:10:38;99812.50;;;13.01;64.49
26487;BME280;14425;56.136;40.360;2023-06-19T04:13:04;99805.66;;;13.03;64.12
26487;BME280;14425;56.136;40.360;2023-06-19T04:15:29;99806.94;;;13.17;64.74
26487;BME280;14425;56.136;40.360;2023-06-19T04:18:00;99805.81;;;13.39;64.87
26487;BME280;14425;56.136;40.360;2023-06-19T04:20:26;99809.63;;;13.52;63.91
26487;BME280;14425;56.136;40.360;2023-06-19T04:22:52;99802.66;;;13.51;63.45
26487;BME280;14425;56.136;40.360;2023-06-19T04:25:18;99796.75;;;13.55;61.41
26487;BME280;14425;56.136;40.360;2023-06-19T04:27:44;99793.75;;;13.73;60.77
26487;BME280;14425;56.136;40.360;2023-06-19T04:30:12;99793.38;;;13.94;60.65
26487;BME280;14425;56.136;40.360;2023-06-19T04:32:38;99797.63;;;13.91;60.95
26487;BME280;14425;56.136;40.360;2023-06-19T04:35:10;99805.53;;;14.33;57.68
26487;BME280;14425;56.136;40.360;2023-06-19T04:37:35;99797.94;;;14.41;58.05
26487;BME280;14425;56.136;40.360;2023-06-19T04:40:01;99799.41;;;14.30;59.02
26487;BME280;14425;56.136;40.360;2023-06-19T04:42:30;99799.47;;;14.33;57.51
26487;BME280;14425;56.136;40.360;2023-06-19T04:44:56;99798.50;;;14.67;56.46
26487;BME280;14425;56.136;40.360;2023-06-19T04:47:24;99797.28;;;14.51;58.18
26487;BME280;14425;56.136;40.360;2023-06-19T04:49:49;99799.78;;;14.47;57.40
26487;BME280;14425;56.136;40.360;2023-06-19T04:52:15;99800.00;;;14.56;56.75
26487;BME280;14425;56.136;40.360;2023-06-19T04:54:40;99804.41;;;15.01;54.93
26487;BME280;14425;56.136;40.360;2023-06-19T04:57:06;99795.75;;;15.02;55.30
26487;BME280;14425;56.136;40.360;2023-06-19T04:59:32;99792.41;;;15.06;55.22
26487;BME280;14425;56.136;40.360;2023-06-19T05:01:58;99794.06;;;15.03;54.38
26487;BME280;14425;56.136;40.360;2023-06-19T05:04:24;99804.34;;;15.42;52.26
26487;BME280;14425;56.136;40.360;2023-06-19T05:06:50;99795.69;;;15.45;51.82
26487;BME280;14425;56.136;40.360;2023-06-19T05:09:16;99803.41;;;15.40;50.78
26487;BME280;14425;56.136;40.360;2023-06-19T05:11:42;99799.22;;;15.48;51.99
26487;BME280;14425;56.136;40.360;2023-06-19T05:14:07;99795.69;;;15.43;49.68
26487;BME280;14425;56.136;40.360;2023-06-19T05:16:33;99797.41;;;15.92;48.07
26487;BME280;14425;56.136;40.360;2023-06-19T05:18:59;99807.78;;;15.92;46.86
26487;BME280;14425;56.136;40.360;2023-06-19T05:21:25;99806.16;;;15.98;46.19
26487;BME280;14425;56.136;40.360;2023-06-19T05:23:50;99802.94;;;16.13;45.28
26487;BME280;14425;56.136;40.360;2023-06-19T05:26:21;99807.13;;;16.05;45.51
26487;BME280;14425;56.136;40.360;2023-06-19T05:28:48;99804.81;;;16.23;44.80
26487;BME280;14425;56.136;40.360;2023-06-19T05:31:14;99805.97;;;16.42;44.17
26487;BME280;14425;56.136;40.360;2023-06-19T05:33:40;99808.44;;;16.33;42.76
26487;BME280;14425;56.136;40.360;2023-06-19T05:36:06;99798.53;;;16.69;42.72
26487;BME280;14425;56.136;40.360;2023-06-19T05:38:31;99796.09;;;16.84;40.28
26487;BME280;14425;56.136;40.360;2023-06-19T05:40:57;99802.53;;;16.43;41.10
26487;BME280;14425;56.136;40.360;2023-06-19T05:43:23;99790.03;;;16.84;39.98
26487;BME280;14425;56.136;40.360;2023-06-19T05:45:53;99789.50;;;17.11;39.30
26487;BME280;14425;56.136;40.360;2023-06-19T05:48:19;99785.19;;;17.13;39.06
26487;BME280;14425;56.136;40.360;2023-06-19T05:50:45;99786.88;;;17.09;41.52
26487;BME280;14425;56.136;40.360;2023-06-19T05:53:10;99789.25;;;16.89;41.26
26487;BME280;14425;56.136;40.360;2023-06-19T05:55:36;99787.28;;;16.73;41.61
26487;BME280;14425;56.136;40.360;2023-06-19T05:58:02;99797.03;;;16.86;41.09
26487;BME280;14425;56.136;40.360;2023-06-19T06:00:28;99798.53;;;16.69;39.51
26487;BME280;14425;56.136;40.360;2023-06-19T06:02:56;99800.00;;;16.51;39.45
26487;BME280;14425;56.136;40.360;2023-06-19T06:05:23;99795.00;;;16.65;40.46
26487;BME280;14425;56.136;40.360;2023-06-19T06:07:49;99784.16;;;16.98;40.51
26487;BME280;14425;56.136;40.360;2023-06-19T06:10:15;99793.00;;;17.14;40.58
26487;BME280;14425;56.136;40.360;2023-06-19T06:12:43;99786.16;;;17.23;39.96
26487;BME280;14425;56.136;40.360;2023-06-19T06:15:09;99787.13;;;17.32;41.56
26487;BME280;14425;56.136;40.360;2023-06-19T06:17:34;99781.59;;;17.92;39.02
26487;BME280;14425;56.136;40.360;2023-06-19T06:20:00;99783.13;;;17.68;39.05
26487;BME280;14425;56.136;40.360;2023-06-19T06:22:25;99777.66;;;17.41;39.33
26487;BME280;14425;56.136;40.360;2023-06-19T06:24:51;99776.38;;;17.92;40.35
26487;BME280;14425;56.136;40.360;2023-06-19T06:27:16;99787.00;;;18.15;39.48
26487;BME280;14425;56.136;40.360;2023-06-19T06:29:42;99782.78;;;18.37;38.57
26487;BME280;14425;56.136;40.360;2023-06-19T06:32:07;99770.47;;;18.18;38.91
26487;BME280;14425;56.136;40.360;2023-06-19T06:34:34;99773.94;;;18.15;39.86
26487;BME280;14425;56.136;40.360;2023-06-19T06:37:00;99775.72;;;18.21;38.94
26487;BME280;14425;56.136;40.360;2023-06-19T06:39:26;99771.53;;;18.49;37.18
26487;BME280;14425;56.136;40.360;2023-06-19T06:41:52;99771.59;;;18.60;37.75
26487;BME280;14425;56.136;40.360;2023-06-19T06:44:17;99767.16;;;18.43;37.78
26487;BME280;14425;56.136;40.360;2023-06-19T06:46:42;99764.50;;;18.39;39.09
26487;BME280;14425;56.136;40.360;2023-06-19T06:49:08;99762.06;;;18.77;37.98
26487;BME280;14425;56.136;40.360;2023-06-19T06:51:33;99762.97;;;18.81;38.38
26487;BME280;14425;56.136;40.360;2023-06-19T06:53:59;99765.53;;;18.70;36.51
26487;BME280;14425;56.136;40.360;2023-06-19T06:56:24;99762.06;;;18.68;37.43
26487;BME280;14425;56.136;40.360;2023-06-19T06:58:50;99763.09;;;19.16;36.68
26487;BME280;14425;56.136;40.360;2023-06-19T07:01:16;99762.22;;;19.11;35.14
26487;BME280;14425;56.136;40.360;2023-06-19T07:03:41;99767.09;;;18.37;37.70
26487;BME280;14425;56.136;40.360;2023-06-19T07:06:07;99765.81;;;17.77;37.90
26487;BME280;14425;56.136;40.360;2023-06-19T07:08:32;99768.25;;;17.61;38.96
26487;BME280;14425;56.136;40.360;2023-06-19T07:10:58;99768.06;;;17.36;38.74
26487;BME280;14425;56.136;40.360;2023-06-19T07:13:24;99767.84;;;17.15;39.54
26487;BME280;14425;56.136;40.360;2023-06-19T07:15:50;99755.09;;;17.46;39.60
26487;BME280;14425;56.136;40.360;2023-06-19T07:18:16;99759.72;;;17.78;38.47
26487;BME280;14425;56.136;40.360;2023-06-19T07:20:41;99750.84;;;17.54;39.15
26487;BME280;14425;56.136;40.360;2023-06-19T07:23:07;99758.88;;;17.80;38.75
26487;BME280;14425;56.136;40.360;2023-06-19T07:25:34;99751.41;;;18.31;38.24
26487;BME280;14425;56.136;40.360;2023-06-19T07:28:00;99743.78;;;18.70;37.07
26487;BME280;14425;56.136;40.360;2023-06-19T07:30:27;99747.28;;;18.76;37.44
26487;BME280;14425;56.136;40.360;2023-06-19T07:32:52;99756.78;;;18.59;37.70
26487;BME280;14425;56.136;40.360;2023-06-19T07:35:18;99748.22;;;18.94;38.21
26487;BME280;14425;56.136;40.360;2023-06-19T07:37:44;99756.84;;;18.80;37.92
26487;BME280;14425;56.136;40.360;2023-06-19T07:40:10;99761.09;;;18.51;38.12
26487;BME280;14425;56.136;40.360;2023-06-19T07:42:36;99743.84;;;18.87;36.27
26487;BME280;14425;56.136;40.360;2023-06-19T07:45:02;99748.34;;;19.52;36.26
26487;BME280;14425;56.136;40.360;2023-06-19T07:47:31;99743.97;;;19.45;36.51
26487;BME280;14425;56.136;40.360;2023-06-19T07:49:57;99732.66;;;19.49;36.97
26487;BME280;14425;56.136;40.360;2023-06-19T07:52:22;99740.50;;;19.69;36.59
26487;BME280;14425;56.136;40.360;2023-06-19T07:54:52;99736.16;;;20.02;35.44
26487;BME280;14425;56.136;40.360;2023-06-19T07:57:18;99738.72;;;20.21;34.87
26487;BME280;14425;56.136;40.360;2023-06-19T07:59:44;99728.25;;;20.05;35.07
26487;BME280;14425;56.136;40.360;2023-06-19T08:02:10;99728.19;;;20.41;34.97
26487;BME280;14425;56.136;40.360;2023-06-19T08:04:36;99726.28;;;20.78;34.55
26487;BME280;14425;56.136;40.360;2023-06-19T08:07:01;99730.63;;;20.90;34.54
26487;BME280;14425;56.136;40.360;2023-06-19T08:09:26;99725.97;;;21.35;33.61
26487;BME280;14425;56.136;40.360;2023-06-19T08:11:52;99718.28;;;21.06;33.53
26487;BME280;14425;56.136;40.360;2023-06-19T08:14:17;99724.72;;;21.81;32.83
26487;BME280;14425;56.136;40.360;2023-06-19T08:16:43;99732.03;;;21.40;33.94
26487;BME280;14425;56.136;40.360;2023-06-19T08:19:08;99725.00;;;21.46;33.50
26487;BME280;14425;56.136;40.360;2023-06-19T08:21:34;99723.25;;;21.45;32.38
26487;BME280;14425;56.136;40.360;2023-06-19T08:23:59;99733.75;;;21.45;34.47
26487;BME280;14425;56.136;40.360;2023-06-19T08:26:25;99723.97;;;21.70;32.61
26487;BME280;14425;56.136;40.360;2023-06-19T08:28:50;99722.91;;;21.88;31.93
26487;BME280;14425;56.136;40.360;2023-06-19T08:31:16;99721.75;;;21.11;31.63
26487;BME280;14425;56.136;40.360;2023-06-19T08:33:42;99715.00;;;20.69;32.87
26487;BME280;14425;56.136;40.360;2023-06-19T08:36:07;99715.47;;;21.37;32.26
26487;BME280;14425;56.136;40.360;2023-06-19T08:38:33;99715.25;;;21.66;33.17
26487;BME280;14425;56.136;40.360;2023-06-19T08:41:01;99719.88;;;21.30;32.89
26487;BME280;14425;56.136;40.360;2023-06-19T08:43:27;99705.69;;;21.59;33.44
26487;BME280;14425;56.136;40.360;2023-06-19T08:48:27;99709.34;;;22.28;31.87
26487;BME280;14425;56.136;40.360;2023-06-19T08:50:55;99703.31;;;22.93;32.18
26487;BME280;14425;56.136;40.360;2023-06-19T08:53:20;99696.19;;;23.58;31.22
26487;BME280;14425;56.136;40.360;2023-06-19T08:55:46;99688.47;;;23.49;30.56
26487;BME280;14425;56.136;40.360;2023-06-19T08:58:11;99694.63;;;23.48;29.99
26487;BME280;14425;56.136;40.360;2023-06-19T09:00:37;99697.88;;;23.64;30.35
26487;BME280;14425;56.136;40.360;2023-06-19T09:03:03;99690.50;;;22.69;30.06
26487;BME280;14425;56.136;40.360;2023-06-19T09:05:29;99690.72;;;22.52;31.45
26487;BME280;14425;56.136;40.360;2023-06-19T09:07:59;99693.50;;;23.04;31.10
26487;BME280;14425;56.136;40.360;2023-06-19T09:10:28;99689.78;;;23.20;29.94
26487;BME280;14425;56.136;40.360;2023-06-19T09:15:25;99659.38;;;22.37;29.61
26487;BME280;14425;56.136;40.360;2023-06-19T09:18:02;99690.66;;;22.57;31.15
26487;BME280;14425;56.136;40.360;2023-06-19T09:20:28;99691.84;;;22.98;29.96
26487;BME280;14425;56.136;40.360;2023-06-19T09:22:58;99671.69;;;24.05;29.22
26487;BME280;14425;56.136;40.360;2023-06-19T09:25:24;99672.03;;;24.31;29.86
26487;BME280;14425;56.136;40.360;2023-06-19T09:27:50;99673.03;;;24.26;30.09
26487;BME280;14425;56.136;40.360;2023-06-19T09:30:16;99659.84;;;24.27;29.16
26487;BME280;14425;56.136;40.360;2023-06-19T09:32:41;99668.56;;;23.33;29.78
26487;BME280;14425;56.136;40.360;2023-06-19T09:35:07;99674.91;;;23.21;31.09
26487;BME280;14425;56.136;40.360;2023-06-19T09:37:33;99660.59;;;24.32;29.83
26487;BME280;14425;56.136;40.360;2023-06-19T09:40:05;99662.81;;;24.93;28.46
26487;BME280;14425;56.136;40.360;2023-06-19T09:42:38;99656.56;;;24.58;30.64
26487;BME280;14425;56.136;40.360;2023-06-19T09:45:08;99663.13;;;23.93;30.56
26487;BME280;14425;56.136;40.360;2023-06-19T09:47:36;99661.75;;;24.63;29.24
26487;BME280;14425;56.136;40.360;2023-06-19T09:50:03;99663.19;;;24.35;29.15
26487;BME280;14425;56.136;40.360;2023-06-19T09:52:31;99658.66;;;24.83;28.60
26487;BME280;14425;56.136;40.360;2023-06-19T09:54:56;99659.06;;;23.74;28.77
26487;BME280;14425;56.136;40.360;2023-06-19T09:57:23;99651.25;;;23.69;27.92
26487;BME280;14425;56.136;40.360;2023-06-19T09:59:58;99658.28;;;23.69;28.78
26487;BME280;14425;56.136;40.360;2023-06-19T10:02:30;99638.53;;;24.79;28.26
26487;BME280;14425;56.136;40.360;2023-06-19T10:04:56;99645.13;;;24.15;28.63
26487;BME280;14425;56.136;40.360;2023-06-19T10:07:22;99638.69;;;23.35;28.36
26487;BME280;14425;56.136;40.360;2023-06-19T10:12:20;99625.25;;;24.01;28.43
26487;BME280;14425;56.136;40.360;2023-06-19T10:14:47;99620.63;;;24.52;29.45
26487;BME280;14425;56.136;40.360;2023-06-19T10:17:16;99616.44;;;24.02;29.52
26487;BME280;14425;56.136;40.360;2023-06-19T10:19:49;99621.06;;;24.73;28.83
26487;BME280;14425;56.136;40.360;2023-06-19T10:22:19;99616.78;;;24.69;30.05
26487;BME280;14425;56.136;40.360;2023-06-19T10:24:49;99623.94;;;25.01;28.87
26487;BME280;14425;56.136;40.360;2023-06-19T10:27:20;99621.03;;;25.12;28.14
26487;BME280;14425;56.136;40.360;2023-06-19T10:29:52;99618.69;;;24.62;28.69
26487;BME280;14425;56.136;40.360;2023-06-19T10:32:19;99616.56;;;24.38;29.40
26487;BME280;14425;56.136;40.360;2023-06-19T10:34:46;99618.44;;;25.11;28.22
26487;BME280;14425;56.136;40.360;2023-06-19T10:37:12;99605.50;;;25.70;27.95
26487;BME280;14425;56.136;40.360;2023-06-19T10:39:38;99617.28;;;25.21;29.21
26487;BME280;14425;56.136;40.360;2023-06-19T10:42:10;99604.00;;;24.50;29.51
26487;BME280;14425;56.136;40.360;2023-06-19T10:44:36;99613.19;;;25.09;28.77
26487;BME280;14425;56.136;40.360;2023-06-19T10:47:05;99602.06;;;24.96;28.43
26487;BME280;14425;56.136;40.360;2023-06-19T10:49:32;99594.59;;;25.15;27.52
26487;BME280;14425;56.136;40.360;2023-06-19T10:51:59;99596.75;;;24.98;28.05
26487;BME280;14425;56.136;40.360;2023-06-19T10:54:27;99603.25;;;25.20;28.09
26487;BME280;14425;56.136;40.360;2023-06-19T10:56:53;99597.34;;;25.11;26.51
26487;BME280;14425;56.136;40.360;2023-06-19T10:59:19;99605.41;;;25.03;27.47
26487;BME280;14425;56.136;40.360;2023-06-19T11:01:46;99596.41;;;25.80;26.80
26487;BME280;14425;56.136;40.360;2023-06-19T11:04:14;99600.81;;;25.11;27.07
26487;BME280;14425;56.136;40.360;2023-06-19T11:06:42;99593.59;;;25.54;26.89
26487;BME280;14425;56.136;40.360;2023-06-19T11:09:11;99588.41;;;26.15;26.16
26487;BME280;14425;56.136;40.360;2023-06-19T11:11:47;99595.22;;;24.89;26.65
26487;BME280;14425;56.136;40.360;2023-06-19T11:14:15;99588.66;;;24.69;26.28
26487;BME280;14425;56.136;40.360;2023-06-19T11:16:42;99593.19;;;24.22;26.73
26487;BME280;14425;56.136;40.360;2023-06-19T11:19:09;99588.25;;;24.05;28.59
26487;BME280;14425;56.136;40.360;2023-06-19T11:21:37;99592.97;;;24.31;29.41
26487;BME280;14425;56.136;40.360;2023-06-19T11:24:05;99586.31;;;24.57;27.89
26487;BME280;14425;56.136;40.360;2023-06-19T11:26:38;99578.06;;;24.30;29.06
26487;BME280;14425;56.136;40.360;2023-06-19T11:29:18;99572.91;;;23.80;28.29
26487;BME280;14425;56.136;40.360;2023-06-19T11:31:44;99584.41;;;23.76;28.08
26487;BME280;14425;56.136;40.360;2023-06-19T11:34:10;99581.91;;;23.70;27.98
26487;BME280;14425;56.136;40.360;2023-06-19T11:36:39;99572.91;;;23.82;27.88
26487;BME280;14425;56.136;40.360;2023-06-19T11:39:12;99575.84;;;23.65;27.42
26487;BME280;14425;56.136;40.360;2023-06-19T11:41:38;99570.69;;;23.60;28.48
26487;BME280;14425;56.136;40.360;2023-06-19T11:44:06;99573.53;;;23.95;28.53
26487;BME280;14425;56.136;40.360;2023-06-19T11:46:33;99572.88;;;23.84;28.34
26487;BME280;14425;56.136;40.360;2023-06-19T11:49:17;99572.56;;;24.01;27.61
26487;BME280;14425;56.136;40.360;2023-06-19T11:51:46;99560.81;;;23.72;28.98
26487;BME280;14425;56.136;40.360;2023-06-19T11:54:12;99558.63;;;23.94;28.19
26487;BME280;14425;56.136;40.360;2023-06-19T11:56:40;99553.00;;;23.67;28.14
26487;BME280;14425;56.136;40.360;2023-06-19T11:59:06;99559.13;;;24.52;27.65
26487;BME280;14425;56.136;40.360;2023-06-19T12:01:34;99557.56;;;24.04;27.45
26487;BME280;14425;56.136;40.360;2023-06-19T12:04:03;99543.78;;;23.46;28.11
26487;BME280;14425;56.136;40.360;2023-06-19T12:06:29;99551.97;;;23.76;28.28
26487;BME280;14425;56.136;40.360;2023-06-19T12:08:55;99551.56;;;23.97;28.60
26487;BME280;14425;56.136;40.360;2023-06-19T12:11:20;99554.19;;;23.97;28.12
26487;BME280;14425;56.136;40.360;2023-06-19T12:13:46;99546.03;;;24.08;27.60
26487;BME280;14425;56.136;40.360;2023-06-19T12:16:11;99544.44;;;24.42;28.10
26487;BME280;14425;56.136;40.360;2023-06-19T12:18:37;99540.28;;;23.91;29.29
26487;BME280;14425;56.136;40.360;2023-06-19T12:21:03;99531.41;;;23.95;29.11
26487;BME280;14425;56.136;40.360;2023-06-19T12:23:29;99534.38;;;24.20;28.27
26487;BME280;14425;56.136;40.360;2023-06-19T12:25:55;99525.16;;;24.40;27.28
26487;BME280;14425;56.136;40.360;2023-06-19T12:28:21;99526.75;;;24.08;27.96
26487;BME280;14425;56.136;40.360;2023-06-19T12:30:47;99530.53;;;24.35;27.69
26487;BME280;14425;56.136;40.360;2023-06-19T12:33:20;99515.03;;;24.60;27.61
26487;BME280;14425;56.136;40.360;2023-06-19T12:35:49;99511.44;;;24.64;27.82
26487;BME280;14425;56.136;40.360;2023-06-19T12:38:15;99509.56;;;24.68;27.13
26487;BME280;14425;56.136;40.360;2023-06-19T12:40:41;99501.53;;;24.74;26.88
26487;BME280;14425;56.136;40.360;2023-06-19T12:43:06;99505.84;;;24.39;26.65
26487;BME280;14425;56.136;40.360;2023-06-19T12:45:32;99500.94;;;23.83;27.82
26487;BME280;14425;56.136;40.360;2023-06-19T12:47:58;99491.66;;;24.07;27.48
26487;BME280;14425;56.136;40.360;2023-06-19T12:50:24;99490.56;;;24.16;27.33
26487;BME280;14425;56.136;40.360;2023-06-19T12:52:50;99485.22;;;23.35;28.06
26487;BME280;14425;56.136;40.360;2023-06-19T12:55:16;99485.88;;;23.90;28.74
26487;BME280;14425;56.136;40.360;2023-06-19T12:57:41;99477.75;;;23.57;29.49
26487;BME280;14425;56.136;40.360;2023-06-19T13:00:10;99484.06;;;23.01;29.42
26487;BME280;14425;56.136;40.360;2023-06-19T13:02:38;99463.38;;;23.30;28.20